createdAt,value
2023-05-02T00:00:10.884Z,9.5408
2023-05-02T00:01:12.871Z,9.5251
2023-05-02T00:02:15.022Z,9.5229
2023-05-02T00:03:17.503Z,9.5008
2023-05-02T00:04:19.790Z,9.4937
2023-05-02T00:05:22.228Z,9.4742
2023-05-02T00:06:24.284Z,9.5039
2023-05-02T00:07:26.283Z,9.4973
2023-05-02T00:08:28.319Z,9.4972
2023-05-02T00:09:30.349Z,9.4733
2023-05-02T00:10:32.357Z,9.4590
2023-05-02T00:11:34.395Z,9.4907
2023-05-02T00:12:36.425Z,9.4620
2023-05-02T00:13:38.468Z,9.4420
2023-05-02T00:14:40.477Z,9.4284
2023-05-02T00:15:42.480Z,9.4116
2023-05-02T00:16:44.518Z,9.4467
2023-05-02T00:17:46.535Z,9.4254
2023-05-02T00:18:48.537Z,9.4122
2023-05-02T00:19:50.587Z,9.4084
2023-05-02T00:20:52.608Z,9.3888
2023-05-02T00:21:54.631Z,9.3776
2023-05-02T00:22:56.681Z,9.3742
2023-05-02T00:23:58.707Z,9.3767
2023-05-02T00:25:00.755Z,9.3619
2023-05-02T00:26:02.793Z,9.3517
2023-05-02T00:27:04.829Z,9.3432
2023-05-02T00:28:06.869Z,9.3399
2023-05-02T00:29:08.906Z,9.3574
2023-05-02T00:30:11.710Z,9.3525
2023-05-02T00:31:13.805Z,9.3450
2023-05-02T00:32:15.787Z,9.3424
2023-05-02T00:33:17.841Z,9.3239
2023-05-02T00:34:19.854Z,9.3280
2023-05-02T00:35:21.875Z,9.3343
2023-05-02T00:36:23.895Z,9.3366
2023-05-02T00:37:25.912Z,9.3184
2023-05-02T00:38:27.987Z,9.3120
2023-05-02T00:39:30.048Z,9.3096
2023-05-02T00:40:32.092Z,9.2964
2023-05-02T00:41:34.126Z,9.3167
2023-05-02T00:42:36.456Z,9.2883
2023-05-02T00:43:38.650Z,9.2656
2023-05-02T00:44:40.710Z,9.2402
2023-05-02T00:45:42.763Z,9.2411
2023-05-02T00:46:44.841Z,9.2455
2023-05-02T00:47:46.889Z,9.2616
2023-05-02T00:48:48.933Z,9.2502
2023-05-02T00:49:50.956Z,9.2540
2023-05-02T00:50:52.978Z,9.2391
2023-05-02T00:51:55.052Z,9.2480
2023-05-02T00:52:57.045Z,9.2243
2023-05-02T00:53:59.063Z,9.2396
2023-05-02T00:55:01.099Z,9.2452
2023-05-02T00:56:03.132Z,9.2207
2023-05-02T00:57:05.183Z,9.1978
2023-05-02T00:58:07.231Z,9.1951
2023-05-02T00:59:09.267Z,9.1869
2023-05-02T01:00:11.350Z,9.1923
2023-05-02T01:01:13.413Z,9.1851
2023-05-02T01:02:15.472Z,9.1874
2023-05-02T01:03:17.721Z,9.1712
2023-05-02T01:04:19.875Z,9.1312
2023-05-02T01:05:21.887Z,9.1265
2023-05-02T01:06:23.940Z,9.1312
2023-05-02T01:07:25.954Z,9.1282
2023-05-02T01:08:27.976Z,9.1067
2023-05-02T01:09:30.000Z,9.0831
2023-05-02T01:10:32.050Z,9.0720
2023-05-02T01:11:34.087Z,9.0556
2023-05-02T01:12:36.122Z,9.0580
2023-05-02T01:13:38.181Z,9.0588
2023-05-02T01:14:40.278Z,9.0385
2023-05-02T01:15:42.390Z,9.0715
2023-05-02T01:16:44.656Z,9.0690
2023-05-02T01:17:46.913Z,9.0341
2023-05-02T01:18:48.964Z,9.0076
2023-05-02T01:19:51.090Z,8.9975
2023-05-02T01:20:53.136Z,8.9655
2023-05-02T01:21:55.114Z,8.9447
2023-05-02T01:22:57.155Z,8.9163
2023-05-02T01:23:59.187Z,8.9221
2023-05-02T01:25:01.555Z,8.9149
2023-05-02T01:26:03.583Z,8.9578
2023-05-02T01:27:05.635Z,8.9273
2023-05-02T01:28:07.697Z,8.9257
2023-05-02T01:29:09.746Z,8.9004
2023-05-02T01:30:11.761Z,8.8945
2023-05-02T01:31:13.807Z,8.8767
2023-05-02T01:32:15.820Z,8.9411
2023-05-02T01:33:17.879Z,8.9824
2023-05-02T01:34:19.927Z,8.9436
2023-05-02T01:35:21.975Z,8.8987
2023-05-02T01:36:23.982Z,8.8866
2023-05-02T01:37:26.002Z,8.8973
2023-05-02T01:38:28.010Z,8.8857
2023-05-02T01:39:30.053Z,8.8701
2023-05-02T01:40:32.126Z,8.8701
2023-05-02T01:41:34.167Z,8.8857
2023-05-02T01:42:36.910Z,8.8985
2023-05-02T01:43:38.972Z,8.9150
2023-05-02T01:44:40.994Z,8.9284
2023-05-02T01:45:43.001Z,8.9551
2023-05-02T01:46:45.060Z,8.9612
2023-05-02T01:47:47.140Z,8.9834
2023-05-02T01:48:49.143Z,8.9904
2023-05-02T01:49:51.158Z,9.0223
2023-05-02T01:50:53.245Z,8.9790
2023-05-02T01:51:55.239Z,9.0273
2023-05-02T01:52:57.260Z,9.0506
2023-05-02T01:53:59.307Z,9.0324
2023-05-02T01:55:01.336Z,9.0350
2023-05-02T01:56:03.381Z,8.9714
2023-05-02T01:57:05.406Z,8.9050
2023-05-02T01:58:07.438Z,8.8833
2023-05-02T01:59:09.441Z,8.8945
2023-05-02T02:00:11.470Z,8.8574
2023-05-02T02:01:13.517Z,8.8593
2023-05-02T02:02:15.531Z,8.8500
2023-05-02T02:03:17.635Z,8.8767
2023-05-02T02:04:19.752Z,8.8407
2023-05-02T02:05:21.602Z,8.8315
2023-05-02T02:06:23.672Z,8.8253
2023-05-02T02:07:25.715Z,8.8450
2023-05-02T02:08:27.672Z,8.8348
2023-05-02T02:09:29.704Z,8.8228
2023-05-02T02:10:31.725Z,8.8519
2023-05-02T02:11:33.716Z,8.8907
2023-05-02T02:12:36.072Z,8.9229
2023-05-02T02:13:38.106Z,8.9204
2023-05-02T02:14:40.134Z,8.8816
2023-05-02T02:15:42.165Z,8.8649
2023-05-02T02:16:44.246Z,8.8285
2023-05-02T02:17:46.428Z,8.8225
2023-05-02T02:18:48.468Z,8.8167
2023-05-02T02:19:50.530Z,8.7997
2023-05-02T02:20:52.552Z,8.8444
2023-05-02T02:21:54.601Z,8.8341
2023-05-02T02:22:56.630Z,8.8466
2023-05-02T02:23:58.661Z,8.8477
2023-05-02T02:25:00.705Z,8.7520
2023-05-02T02:26:02.785Z,8.7325
2023-05-02T02:27:04.843Z,8.7467
2023-05-02T02:28:06.871Z,8.7580
2023-05-02T02:29:08.865Z,8.7514
2023-05-02T02:30:11.238Z,8.7581
2023-05-02T02:31:13.331Z,8.7325
2023-05-02T02:32:15.359Z,8.7371
2023-05-02T02:33:17.376Z,8.6918
2023-05-02T02:34:19.440Z,8.6813
2023-05-02T02:35:21.693Z,8.6844
2023-05-02T02:36:23.708Z,8.6584
2023-05-02T02:37:25.752Z,8.6821
2023-05-02T02:38:27.761Z,8.6585
2023-05-02T02:39:29.790Z,8.6516
2023-05-02T02:40:31.845Z,8.6584
2023-05-02T02:41:33.880Z,8.6533
2023-05-02T02:42:35.926Z,8.6356
2023-05-02T02:43:37.931Z,8.6441
2023-05-02T02:44:40.213Z,8.6449
2023-05-02T02:45:42.242Z,8.6398
2023-05-02T02:46:44.359Z,8.6716
2023-05-02T02:47:46.430Z,8.6772
2023-05-02T02:48:48.396Z,8.6901
2023-05-02T02:49:50.444Z,8.7350
2023-05-02T02:50:52.444Z,8.7790
2023-05-02T02:51:54.451Z,8.7512
2023-05-02T02:52:56.536Z,8.7421
2023-05-02T02:53:58.568Z,8.7407
2023-05-02T02:55:00.628Z,8.7573
2023-05-02T02:56:02.617Z,8.7908
2023-05-02T02:57:04.652Z,8.7870
2023-05-02T02:58:06.664Z,8.7927
2023-05-02T02:59:08.702Z,8.7870
2023-05-02T03:00:10.738Z,8.8049
2023-05-02T03:01:12.766Z,8.8092
2023-05-02T03:02:14.772Z,8.7917
2023-05-02T03:03:16.885Z,8.7925
2023-05-02T03:04:18.940Z,8.8065
2023-05-02T03:05:19.070Z,8.8095
2023-05-02T03:06:21.227Z,8.8096
2023-05-02T03:07:23.268Z,8.8037
2023-05-02T03:08:25.302Z,8.8004
2023-05-02T03:09:27.371Z,8.8092
2023-05-02T03:10:29.367Z,8.8107
2023-05-02T03:11:31.394Z,8.8264
2023-05-02T03:12:33.429Z,8.8624
2023-05-02T03:13:35.421Z,8.8725
2023-05-02T03:14:37.455Z,8.8082
2023-05-02T03:15:40.005Z,8.7605
2023-05-02T03:16:42.115Z,8.7419
2023-05-02T03:17:44.361Z,8.7364
2023-05-02T03:18:46.383Z,8.7869
2023-05-02T03:19:48.518Z,8.7931
2023-05-02T03:20:50.513Z,8.7887
2023-05-02T03:21:52.551Z,8.8010
2023-05-02T03:22:54.607Z,8.8205
2023-05-02T03:23:56.629Z,8.8277
2023-05-02T03:24:58.661Z,8.8315
2023-05-02T03:26:00.654Z,8.7853
2023-05-02T03:27:02.658Z,8.8401
2023-05-02T03:28:04.718Z,8.8500
2023-05-02T03:29:06.734Z,8.8249
2023-05-02T03:30:08.751Z,8.8316
2023-05-02T03:31:10.787Z,8.8357
2023-05-02T03:32:13.136Z,8.8439
2023-05-02T03:33:15.426Z,8.8742
2023-05-02T03:34:17.411Z,8.8734
2023-05-02T03:35:19.672Z,8.8940
2023-05-02T03:36:21.691Z,8.8970
2023-05-02T03:37:23.740Z,8.9124
2023-05-02T03:38:25.776Z,8.9042
2023-05-02T03:39:27.799Z,8.9103
2023-05-02T03:40:29.829Z,8.9325
2023-05-02T03:41:31.913Z,8.9345
2023-05-02T03:42:33.958Z,8.9267
2023-05-02T03:43:36.045Z,8.9623
2023-05-02T03:44:38.025Z,8.9584
2023-05-02T03:45:40.041Z,8.9432
2023-05-02T03:46:42.098Z,8.9455
2023-05-02T03:47:44.434Z,8.9647
2023-05-02T03:48:46.451Z,8.9438
2023-05-02T03:49:48.505Z,8.9447
2023-05-02T03:50:50.548Z,8.9483
2023-05-02T03:51:52.571Z,8.9655
2023-05-02T03:52:54.666Z,8.9626
2023-05-02T03:53:56.707Z,8.9713
2023-05-02T03:54:58.757Z,8.9546
2023-05-02T03:56:00.797Z,8.9227
2023-05-02T03:57:02.841Z,8.9212
2023-05-02T03:58:04.873Z,8.9105
2023-05-02T03:59:06.906Z,8.9080
2023-05-02T04:00:07.062Z,8.9023
2023-05-02T04:01:09.085Z,8.9050
2023-05-02T04:02:11.152Z,8.8948
2023-05-02T04:03:13.263Z,8.8858
2023-05-02T04:04:15.310Z,8.9238
2023-05-02T04:05:17.344Z,8.9655
2023-05-02T04:06:19.441Z,8.9394
2023-05-02T04:07:21.459Z,8.9040
2023-05-02T04:08:23.471Z,8.8968
2023-05-02T04:09:25.645Z,8.8882
2023-05-02T04:10:27.720Z,8.8689
2023-05-02T04:11:29.751Z,8.8473
2023-05-02T04:12:31.835Z,8.8376
2023-05-02T04:13:33.856Z,8.9092
2023-05-02T04:14:35.881Z,8.9813
2023-05-02T04:15:37.931Z,9.0195
2023-05-02T04:16:39.960Z,9.0324
2023-05-02T04:17:42.009Z,9.0456
2023-05-02T04:18:44.035Z,8.9732
2023-05-02T04:19:46.116Z,8.9064
2023-05-02T04:20:48.148Z,8.9037
2023-05-02T04:21:50.212Z,8.9620
2023-05-02T04:22:50.413Z,8.9403
2023-05-02T04:23:52.443Z,8.9562
2023-05-02T04:24:54.505Z,9.0038
2023-05-02T04:25:56.540Z,9.0454
2023-05-02T04:26:58.590Z,9.0702
2023-05-02T04:28:00.606Z,9.0765
2023-05-02T04:29:02.630Z,9.0864
2023-05-02T04:30:04.667Z,9.1423
2023-05-02T04:31:06.740Z,9.2177
2023-05-02T04:32:08.732Z,9.1954
2023-05-02T04:33:10.832Z,9.0966
2023-05-02T04:34:12.822Z,9.0438
2023-05-02T04:35:14.852Z,8.9988
2023-05-02T04:36:16.880Z,8.9714
2023-05-02T04:37:18.948Z,8.9507
2023-05-02T04:38:21.048Z,8.9388
2023-05-02T04:39:23.158Z,8.9130
2023-05-02T04:40:25.171Z,8.9056
2023-05-02T04:41:27.206Z,8.8778
2023-05-02T04:42:29.219Z,8.8643
2023-05-02T04:43:31.249Z,8.8651
2023-05-02T04:44:33.273Z,8.8957
2023-05-02T04:45:35.299Z,8.8938
2023-05-02T04:46:37.384Z,8.8687
2023-05-02T04:47:39.469Z,8.8400
2023-05-02T04:48:41.491Z,8.8483
2023-05-02T04:49:43.518Z,8.8242
2023-05-02T04:50:45.583Z,8.8161
2023-05-02T04:51:47.579Z,8.8250
2023-05-02T04:52:49.614Z,8.8753
2023-05-02T04:53:51.712Z,8.8736
2023-05-02T04:54:53.778Z,9.0804
2023-05-02T04:55:55.884Z,9.1390
2023-05-02T04:56:57.898Z,9.1362
2023-05-02T04:57:59.933Z,9.1400
2023-05-02T04:59:02.004Z,9.1230
2023-05-02T05:00:04.289Z,9.1148
2023-05-02T05:01:06.288Z,9.1191
2023-05-02T05:02:08.481Z,9.1079
2023-05-02T05:03:10.740Z,9.1422
2023-05-02T05:04:12.841Z,9.1533
2023-05-02T05:05:14.980Z,9.1472
2023-05-02T05:06:17.090Z,9.1373
2023-05-02T05:07:19.098Z,9.2235
2023-05-02T05:08:21.131Z,9.2623
2023-05-02T05:09:23.169Z,9.1191
2023-05-02T05:10:25.215Z,9.0192
2023-05-02T05:11:27.257Z,8.9570
2023-05-02T05:12:29.284Z,8.9417
2023-05-02T05:13:31.324Z,9.0201
2023-05-02T05:14:33.354Z,9.1024
2023-05-02T05:15:35.451Z,9.1587
2023-05-02T05:16:37.561Z,9.2831
2023-05-02T05:17:39.737Z,9.3626
2023-05-02T05:18:41.752Z,9.4571
2023-05-02T05:19:43.774Z,9.5129
2023-05-02T05:20:46.119Z,9.5603
2023-05-02T05:21:48.378Z,9.6390
2023-05-02T05:22:50.460Z,9.7512
2023-05-02T05:23:52.480Z,9.7570
2023-05-02T05:24:54.504Z,9.7713
2023-05-02T05:25:56.530Z,9.6803
2023-05-02T05:26:58.560Z,9.5319
2023-05-02T05:28:00.604Z,9.4805
2023-05-02T05:29:02.659Z,9.4774
2023-05-02T05:30:04.707Z,9.4964
2023-05-02T05:31:06.780Z,9.4691
2023-05-02T05:32:08.812Z,9.5129
2023-05-02T05:33:11.266Z,9.4620
2023-05-02T05:34:13.371Z,9.4172
2023-05-02T05:35:15.429Z,9.3935
2023-05-02T05:36:17.484Z,9.4749
2023-05-02T05:37:19.563Z,9.4692
2023-05-02T05:38:21.612Z,9.4670
2023-05-02T05:39:23.664Z,9.5229
2023-05-02T05:40:25.715Z,9.4947
2023-05-02T05:41:27.769Z,9.4339
2023-05-02T05:42:29.834Z,9.4023
2023-05-02T05:43:31.906Z,9.3792
2023-05-02T05:44:33.989Z,9.3228
2023-05-02T05:45:36.084Z,9.3369
2023-05-02T05:46:38.249Z,9.3492
2023-05-02T05:47:40.432Z,9.4034
2023-05-02T05:48:42.597Z,9.4083
2023-05-02T05:49:44.638Z,9.4189
2023-05-02T05:50:46.715Z,9.4347
2023-05-02T05:51:48.795Z,9.4182
2023-05-02T05:52:50.867Z,9.3863
2023-05-02T05:53:52.943Z,9.3560
2023-05-02T05:54:55.029Z,9.3825
2023-05-02T05:55:57.095Z,9.4090
2023-05-02T05:56:59.177Z,9.3864
2023-05-02T05:58:01.253Z,9.3709
2023-05-02T05:59:03.341Z,9.4475
2023-05-02T06:00:05.455Z,9.4920
2023-05-02T06:01:07.770Z,9.4580
2023-05-02T06:02:09.864Z,9.4599
2023-05-02T06:03:12.326Z,9.5349
2023-05-02T06:04:14.553Z,9.6689
2023-05-02T06:05:16.641Z,9.7501
2023-05-02T06:06:18.701Z,9.7977
2023-05-02T06:07:20.762Z,9.8066
2023-05-02T06:08:23.132Z,9.8352
2023-05-02T06:09:25.181Z,9.7733
2023-05-02T06:10:27.234Z,9.7166
2023-05-02T06:11:29.329Z,9.6978
2023-05-02T06:12:31.365Z,9.7359
2023-05-02T06:13:33.418Z,9.7810
2023-05-02T06:14:35.569Z,9.9034
2023-05-02T06:15:37.662Z,9.9293
2023-05-02T06:16:39.773Z,10.0677
2023-05-02T06:17:41.798Z,10.2213
2023-05-02T06:18:43.860Z,10.2620
2023-05-02T06:19:45.914Z,10.2384
2023-05-02T06:20:47.973Z,10.3798
2023-05-02T06:21:50.035Z,10.4844
2023-05-02T06:22:52.119Z,10.3335
2023-05-02T06:23:54.246Z,10.4505
2023-05-02T06:24:56.284Z,10.6482
2023-05-02T06:25:58.356Z,10.6501
2023-05-02T06:27:00.428Z,10.4979
2023-05-02T06:28:02.487Z,10.6160
2023-05-02T06:29:04.553Z,10.6317
2023-05-02T06:30:06.672Z,10.5356
2023-05-02T06:31:08.758Z,10.4214
2023-05-02T06:32:10.848Z,10.2161
2023-05-02T06:33:12.951Z,10.1151
2023-05-02T06:34:15.030Z,10.1814
2023-05-02T06:35:17.110Z,10.4049
2023-05-02T06:36:19.194Z,10.5425
2023-05-02T06:37:21.243Z,10.5623
2023-05-02T06:38:23.320Z,10.4470
2023-05-02T06:39:25.397Z,10.2914
2023-05-02T06:40:27.536Z,10.3280
2023-05-02T06:41:29.608Z,10.4101
2023-05-02T06:42:31.665Z,10.3922
2023-05-02T06:43:33.732Z,10.6787
2023-05-02T06:44:35.794Z,10.9542
2023-05-02T06:45:37.865Z,11.1446
2023-05-02T06:46:39.987Z,11.3331
2023-05-02T06:47:42.114Z,11.4632
2023-05-02T06:48:44.137Z,11.8158
2023-05-02T06:49:46.216Z,11.8460
2023-05-02T06:50:48.327Z,11.8818
2023-05-02T06:51:50.402Z,12.3563
2023-05-02T06:52:52.460Z,12.4477
2023-05-02T06:53:54.552Z,12.2820
2023-05-02T06:54:56.598Z,12.1268
2023-05-02T06:55:58.700Z,11.9041
2023-05-02T06:57:00.761Z,11.9843
2023-05-02T06:58:02.807Z,12.0239
2023-05-02T06:59:04.858Z,11.6689
2023-05-02T07:00:06.980Z,11.8285
2023-05-02T07:01:09.190Z,12.1419
2023-05-02T07:02:11.274Z,12.3046
2023-05-02T07:03:13.383Z,12.2825
2023-05-02T07:04:15.484Z,11.8262
2023-05-02T07:05:17.552Z,11.8248
2023-05-02T07:06:19.648Z,12.0483
2023-05-02T07:07:21.732Z,12.0016
2023-05-02T07:08:23.858Z,12.1755
2023-05-02T07:09:25.982Z,12.0275
2023-05-02T07:10:28.038Z,12.4694
2023-05-02T07:11:30.060Z,12.3982
2023-05-02T07:12:32.170Z,12.6166
2023-05-02T07:13:34.205Z,12.6559
2023-05-02T07:14:36.263Z,12.4999
2023-05-02T07:15:38.331Z,12.4003
2023-05-02T07:16:40.514Z,12.4868
2023-05-02T07:17:42.644Z,11.8494
2023-05-02T07:18:44.701Z,11.9432
2023-05-02T07:19:46.770Z,12.2196
2023-05-02T07:20:48.834Z,12.3924
2023-05-02T07:21:50.894Z,12.1863
2023-05-02T07:22:52.927Z,12.3529
2023-05-02T07:23:54.975Z,12.0084
2023-05-02T07:24:57.178Z,11.8832
2023-05-02T07:25:59.219Z,11.9446
2023-05-02T07:27:01.706Z,12.2570
2023-05-02T07:28:03.803Z,12.6119
2023-05-02T07:29:05.888Z,12.9278
2023-05-02T07:30:08.098Z,13.2636
2023-05-02T07:31:10.183Z,13.4885
2023-05-02T07:32:12.284Z,13.7766
2023-05-02T07:33:14.331Z,12.8937
2023-05-02T07:34:16.503Z,12.8472
2023-05-02T07:35:18.555Z,13.2521
2023-05-02T07:36:20.595Z,13.7494
2023-05-02T07:37:22.705Z,13.6957
2023-05-02T07:38:24.796Z,13.6002
2023-05-02T07:39:26.832Z,13.3988
2023-05-02T07:40:28.900Z,13.6904
2023-05-02T07:41:30.958Z,13.7568
2023-05-02T07:42:33.038Z,13.4698
2023-05-02T07:43:35.100Z,13.7906
2023-05-02T07:44:37.181Z,13.4690
2023-05-02T07:45:39.243Z,13.1048
2023-05-02T07:46:41.410Z,13.1228
2023-05-02T07:47:43.579Z,13.5063
2023-05-02T07:48:45.700Z,13.4235
2023-05-02T07:49:47.759Z,12.7663
2023-05-02T07:50:49.856Z,12.6127
2023-05-02T07:51:51.919Z,12.5468
2023-05-02T07:52:54.016Z,12.4535
2023-05-02T07:53:56.097Z,12.2435
2023-05-02T07:54:58.178Z,12.2220
2023-05-02T07:56:00.261Z,12.3934
2023-05-02T07:57:02.409Z,12.5453
2023-05-02T07:58:04.479Z,12.6551
2023-05-02T07:59:06.522Z,12.5476
2023-05-02T08:00:10.240Z,12.5589
2023-05-02T08:01:16.701Z,12.7147
2023-05-02T08:02:18.843Z,13.0492
2023-05-02T08:03:20.997Z,13.0485
2023-05-02T08:04:23.356Z,13.1585
2023-05-02T08:05:25.450Z,13.2235
2023-05-02T08:06:27.536Z,12.8668
2023-05-02T08:07:29.638Z,12.9194
2023-05-02T08:08:31.733Z,12.7762
2023-05-02T08:09:33.805Z,12.7432
2023-05-02T08:10:35.898Z,12.6325
2023-05-02T08:11:37.989Z,12.5156
2023-05-02T08:12:40.105Z,13.1494
2023-05-02T08:13:42.171Z,13.2703
2023-05-02T08:14:44.252Z,13.1975
2023-05-02T08:15:46.399Z,13.2116
2023-05-02T08:16:48.541Z,13.3957
2023-05-02T08:17:50.906Z,13.1744
2023-05-02T08:18:52.985Z,13.2066
2023-05-02T08:19:55.076Z,13.4325
2023-05-02T08:20:57.137Z,13.5455
2023-05-02T08:21:59.265Z,13.5985
2023-05-02T08:23:01.615Z,13.7881
2023-05-02T08:25:04.262Z,13.9953
2023-05-02T08:26:06.351Z,14.4668
2023-05-02T08:27:08.424Z,14.2664
2023-05-02T08:28:10.522Z,14.4569
2023-05-02T08:29:12.637Z,13.9346
2023-05-02T08:30:14.784Z,13.4401
2023-05-02T08:31:16.938Z,13.5765
2023-05-02T08:32:18.964Z,13.3214
2023-05-02T08:33:21.127Z,13.2837
2023-05-02T08:34:23.158Z,13.8765
2023-05-02T08:35:25.241Z,13.7961
2023-05-02T08:36:27.294Z,13.9134
2023-05-02T08:37:29.384Z,13.8682
2023-05-02T08:38:31.449Z,14.2601
2023-05-02T08:39:33.501Z,14.4634
2023-05-02T08:40:42.174Z,14.6401
2023-05-02T08:41:36.283Z,14.8946
2023-05-02T08:42:38.362Z,15.1012
2023-05-02T08:43:40.440Z,15.1630
2023-05-02T08:44:42.521Z,15.2121
2023-05-02T08:45:44.717Z,15.2242
2023-05-02T08:46:46.852Z,15.3403
2023-05-02T08:47:49.258Z,15.4354
2023-05-02T08:48:51.326Z,15.1939
2023-05-02T08:49:53.479Z,14.2686
2023-05-02T08:50:55.544Z,13.6442
2023-05-02T08:51:57.663Z,14.1404
2023-05-02T08:52:59.736Z,14.8251
2023-05-02T08:54:01.794Z,15.2783
2023-05-02T08:55:04.065Z,14.6702
2023-05-02T08:56:06.452Z,14.0988
2023-05-02T08:57:08.766Z,14.8330
2023-05-02T08:58:10.867Z,15.8975
2023-05-02T08:59:12.972Z,16.8169
2023-05-02T09:00:15.063Z,16.2247
2023-05-02T09:01:17.188Z,14.9220
2023-05-02T09:02:19.261Z,15.0929
2023-05-02T09:03:23.376Z,15.4460
2023-05-02T09:04:22.240Z,16.0734
2023-05-02T09:05:24.339Z,17.2476
2023-05-02T09:06:26.480Z,17.4456
2023-05-02T09:07:28.566Z,16.1067
2023-05-02T09:08:30.632Z,16.6521
2023-05-02T09:09:39.778Z,16.8401
2023-05-02T09:10:34.553Z,16.6264
2023-05-02T09:11:36.391Z,16.7161
2023-05-02T09:12:38.443Z,16.2355
2023-05-02T09:13:40.524Z,16.1322
2023-05-02T09:15:45.938Z,15.7468
2023-05-02T09:16:48.067Z,15.9880
2023-05-02T09:17:50.137Z,15.8771
2023-05-02T09:18:52.180Z,16.2021
2023-05-02T09:19:54.181Z,15.8783
2023-05-02T09:20:56.238Z,15.3760
2023-05-02T09:21:58.314Z,15.2227
2023-05-02T09:23:03.875Z,15.6223
2023-05-02T09:24:05.934Z,16.6384
2023-05-02T09:25:08.099Z,16.6098
2023-05-02T09:26:10.168Z,16.1084
2023-05-02T09:27:12.284Z,16.4867
2023-05-02T09:28:14.309Z,16.6664
2023-05-02T09:29:23.894Z,17.0474
2023-05-02T09:30:25.983Z,17.2865
2023-05-02T09:31:49.792Z,17.5078
2023-05-02T09:32:34.384Z,16.8252
2023-05-02T09:33:36.571Z,17.0295
2023-05-02T09:34:38.620Z,17.7865
2023-05-02T09:35:40.719Z,19.0089
2023-05-02T09:36:42.792Z,18.7473
2023-05-02T09:37:44.854Z,18.8011
2023-05-02T09:38:46.932Z,17.7989
2023-05-02T09:39:48.915Z,16.2714
2023-05-02T09:40:50.959Z,15.7126
2023-05-02T09:41:53.031Z,15.4035
2023-05-02T09:42:54.939Z,16.0106
2023-05-02T09:43:57.023Z,15.7098
2023-05-02T09:44:59.276Z,15.7018
2023-05-02T09:46:01.652Z,15.9300
2023-05-02T09:47:03.695Z,15.7263
2023-05-02T09:48:05.837Z,15.9553
2023-05-02T09:49:07.883Z,16.1516
2023-05-02T09:50:09.939Z,17.2535
2023-05-02T09:51:12.030Z,16.7658
2023-05-02T09:52:14.131Z,17.0829
2023-05-02T09:53:16.275Z,17.9558
2023-05-02T09:54:18.361Z,18.3573
2023-05-02T09:55:20.716Z,18.5524
2023-05-02T09:56:23.966Z,19.0540
2023-05-02T09:57:23.243Z,18.3692
2023-05-02T09:58:25.371Z,17.7246
2023-05-02T09:59:27.451Z,17.8565
2023-05-02T10:00:29.540Z,18.2554
2023-05-02T10:01:31.634Z,18.9839
2023-05-02T10:03:33.825Z,19.3351
2023-05-02T10:04:36.011Z,20.3755
2023-05-02T10:05:38.096Z,20.5178
2023-05-02T10:06:40.303Z,20.3964
2023-05-02T10:07:42.401Z,20.0324
2023-05-02T10:08:44.467Z,18.8978
2023-05-02T10:09:46.605Z,18.8538
2023-05-02T10:10:48.959Z,19.5381
2023-05-02T10:11:51.032Z,19.6974
2023-05-02T10:12:53.132Z,19.9124
2023-05-02T10:14:58.904Z,17.9770
2023-05-02T10:16:01.039Z,17.6370
2023-05-02T10:17:03.164Z,16.6749
2023-05-02T10:19:08.523Z,17.1172
2023-05-02T10:20:10.595Z,17.7824
2023-05-02T10:21:12.639Z,16.9524
2023-05-02T10:22:14.721Z,16.7839
2023-05-02T10:23:16.865Z,16.7903
2023-05-02T10:24:18.930Z,16.5019
2023-05-02T10:25:21.002Z,16.5878
2023-05-02T10:26:23.098Z,16.3009
2023-05-02T10:27:25.155Z,16.4077
2023-05-02T10:28:27.252Z,16.3593
2023-05-02T10:29:29.311Z,15.8947
2023-05-02T10:30:30.275Z,15.4975
2023-05-02T10:31:32.412Z,15.4518
2023-05-02T10:32:34.888Z,15.5725
2023-05-02T10:33:36.957Z,15.5491
2023-05-02T10:34:39.104Z,15.8500
2023-05-02T10:35:39.467Z,15.4942
2023-05-02T10:37:45.048Z,14.6892
2023-05-02T10:38:47.060Z,14.9156
2023-05-02T10:39:49.144Z,15.2880
2023-05-02T10:40:51.171Z,15.4639
2023-05-02T10:41:53.235Z,15.6893
2023-05-02T10:42:55.299Z,15.8109
2023-05-02T10:43:57.132Z,15.5960
2023-05-02T10:44:59.467Z,15.7682
2023-05-02T10:46:01.657Z,15.3188
2023-05-02T10:47:03.790Z,15.4236
2023-05-02T10:48:04.390Z,15.7087
2023-05-02T10:49:06.463Z,15.4748
2023-05-02T10:50:08.589Z,15.5409
2023-05-02T10:51:10.640Z,15.6477
2023-05-02T10:52:12.743Z,15.4839
2023-05-02T10:53:14.806Z,15.6264
2023-05-02T10:54:16.781Z,15.1554
2023-05-02T10:55:18.841Z,14.8198
2023-05-02T10:56:20.892Z,15.0268
2023-05-02T10:57:22.989Z,15.6289
2023-05-02T10:58:25.098Z,15.6014
2023-05-02T10:59:27.146Z,15.3084
2023-05-02T11:00:27.205Z,15.1605
2023-05-02T11:01:29.440Z,15.5301
2023-05-02T11:02:31.751Z,15.2945
2023-05-02T11:03:33.909Z,15.2447
2023-05-02T11:04:35.778Z,15.4388
2023-05-02T11:05:37.840Z,15.7241
2023-05-02T11:06:40.238Z,15.7217
2023-05-02T11:07:42.274Z,15.5572
2023-05-02T11:08:44.350Z,15.9113
2023-05-02T11:09:46.671Z,15.6843
2023-05-02T11:10:48.749Z,15.4346
2023-05-02T11:11:58.325Z,15.1328
2023-05-02T11:12:53.458Z,15.0131
2023-05-02T11:13:55.523Z,14.9696
2023-05-02T11:14:57.640Z,15.3075
2023-05-02T11:16:00.232Z,15.6690
2023-05-02T11:17:02.287Z,15.6922
2023-05-02T11:18:12.124Z,15.9427
2023-05-02T11:19:06.956Z,16.4948
2023-05-02T11:20:09.048Z,16.5417
2023-05-02T11:21:11.115Z,16.4006
2023-05-02T11:22:13.248Z,15.6950
2023-05-02T11:23:15.279Z,16.2394
2023-05-02T11:24:17.382Z,16.7870
2023-05-02T11:25:19.465Z,17.0625
2023-05-02T11:26:21.557Z,16.3271
2023-05-02T11:27:23.655Z,16.7426
2023-05-02T11:28:25.731Z,16.7902
2023-05-02T11:29:27.828Z,16.5847
2023-05-02T11:30:29.972Z,16.3134
2023-05-02T11:31:32.092Z,16.7449
2023-05-02T11:32:34.419Z,16.6794
2023-05-02T11:33:36.509Z,16.9202
2023-05-02T11:34:38.598Z,16.1791
2023-05-02T11:35:44.563Z,16.0372
2023-05-02T11:36:54.309Z,16.3767
2023-05-02T11:37:56.386Z,16.9017
2023-05-02T11:38:58.488Z,16.7284
2023-05-02T11:40:00.588Z,16.0277
2023-05-02T11:41:02.689Z,16.7919
2023-05-02T11:42:04.774Z,18.1314
2023-05-02T11:43:06.810Z,18.9610
2023-05-02T11:44:08.951Z,17.9737
2023-05-02T11:45:11.010Z,17.1370
2023-05-02T11:46:13.108Z,17.2015
2023-05-02T11:47:15.143Z,17.9601
2023-05-02T11:48:17.249Z,18.9825
2023-05-02T11:49:19.326Z,19.1529
2023-05-02T11:50:21.420Z,19.5634
2023-05-02T11:51:23.509Z,20.2713
2023-05-02T11:52:26.242Z,21.4842
2023-05-02T11:53:28.283Z,21.9139
2023-05-02T11:54:30.618Z,21.3689
2023-05-02T11:55:36.608Z,20.9476
2023-05-02T11:56:38.679Z,20.3359
2023-05-02T11:58:40.997Z,19.3039
2023-05-02T12:00:43.600Z,17.7526
2023-05-02T12:01:45.678Z,18.1949
2023-05-02T12:02:47.812Z,18.7398
2023-05-02T12:03:50.007Z,18.7990
2023-05-02T12:04:52.127Z,18.4224
2023-05-02T12:05:54.287Z,18.4516
2023-05-02T12:06:56.445Z,18.9282
2023-05-02T12:07:58.585Z,19.2321
2023-05-02T12:09:00.682Z,18.2689
2023-05-02T12:10:03.069Z,18.2073
2023-05-02T12:11:05.192Z,17.4984
2023-05-02T12:13:10.168Z,17.5733
2023-05-02T12:14:10.288Z,19.0957
2023-05-02T12:15:12.449Z,18.9212
2023-05-02T12:16:14.671Z,19.4654
2023-05-02T12:17:16.838Z,18.2400
2023-05-02T12:18:20.760Z,16.6295
2023-05-02T12:19:20.486Z,16.9508
2023-05-02T12:20:22.609Z,16.9606
2023-05-02T12:21:24.726Z,17.7846
2023-05-02T12:22:26.857Z,16.8275
2023-05-02T12:23:28.956Z,16.3915
2023-05-02T12:24:31.100Z,16.8960
2023-05-02T12:25:33.194Z,16.4988
2023-05-02T12:26:35.313Z,15.8061
2023-05-02T12:27:57.419Z,15.0370
2023-05-02T12:28:52.267Z,14.1068
2023-05-02T12:29:54.378Z,13.7785
2023-05-02T12:30:56.511Z,13.3754
2023-05-02T12:31:58.725Z,13.2652
2023-05-02T12:33:00.898Z,13.4438
2023-05-02T12:34:03.009Z,13.1643
2023-05-02T12:35:05.120Z,12.8257
2023-05-02T12:36:07.200Z,12.5806
2023-05-02T12:37:09.363Z,12.8371
2023-05-02T12:38:11.844Z,12.5531
2023-05-02T12:39:13.725Z,12.6382
2023-05-02T12:40:15.829Z,12.5019
2023-05-02T12:41:17.950Z,12.1452
2023-05-02T12:42:20.057Z,12.0646
2023-05-02T12:43:22.280Z,12.1609
2023-05-02T12:44:24.397Z,12.2556
2023-05-02T12:45:26.731Z,12.0241
2023-05-02T12:46:28.912Z,12.0285
2023-05-02T12:47:31.078Z,11.9994
2023-05-02T12:48:33.148Z,12.1644
2023-05-02T12:49:35.524Z,12.0551
2023-05-02T12:50:37.620Z,11.8701
2023-05-02T12:51:39.719Z,11.7690